sensor_id;sensor_type;location;lat;lon;timestamp;P1;durP1;ratioP1;P2;durP2;ratioP2
82022;SDS011;71575;49.908;18.356;2024-02-26T00:00:36;54.25;;;31.42;;
82022;SDS011;71575;49.908;18.356;2024-02-26T00:03:57;49.10;;;25.48;;
82022;SDS011;71575;49.908;18.356;2024-02-26T00:06:58;49.47;;;25.35;;
82022;SDS011;71575;49.908;18.356;2024-02-26T00:10:01;48.53;;;27.85;;
82022;SDS011;71575;49.908;18.356;2024-02-26T00:13:02;44.97;;;24.40;;
82022;SDS011;71575;49.908;18.356;2024-02-26T00:16:03;49.13;;;23.67;;
82022;SDS011;71575;49.908;18.356;2024-02-26T00:19:07;44.17;;;23.80;;
82022;SDS011;71575;49.908;18.356;2024-02-26T00:22:08;55.88;;;29.58;;
82022;SDS011;71575;49.908;18.356;2024-02-26T00:25:09;55.35;;;31.05;;
82022;SDS011;71575;49.908;18.356;2024-02-26T00:28:10;54.38;;;33.42;;
82022;SDS011;71575;49.908;18.356;2024-02-26T00:31:14;57.75;;;33.47;;
82022;SDS011;71575;49.908;18.356;2024-02-26T00:34:15;55.22;;;30.50;;
82022;SDS011;71575;49.908;18.356;2024-02-26T00:37:21;59.78;;;31.52;;
82022;SDS011;71575;49.908;18.356;2024-02-26T00:40:25;56.45;;;33.03;;
82022;SDS011;71575;49.908;18.356;2024-02-26T00:43:27;61.67;;;32.75;;
82022;SDS011;71575;49.908;18.356;2024-02-26T00:46:31;65.10;;;33.13;;
82022;SDS011;71575;49.908;18.356;2024-02-26T00:49:32;56.88;;;27.20;;
82022;SDS011;71575;49.908;18.356;2024-02-26T00:52:32;53.58;;;25.85;;
82022;SDS011;71575;49.908;18.356;2024-02-26T00:55:37;57.28;;;28.67;;
82022;SDS011;71575;49.908;18.356;2024-02-26T00:58:39;50.40;;;29.17;;
82022;SDS011;71575;49.908;18.356;2024-02-26T01:01:43;48.90;;;27.85;;
82022;SDS011;71575;49.908;18.356;2024-02-26T01:04:44;47.05;;;26.00;;
82022;SDS011;71575;49.908;18.356;2024-02-26T01:07:48;47.70;;;28.88;;
82022;SDS011;71575;49.908;18.356;2024-02-26T01:10:52;50.50;;;27.98;;
82022;SDS011;71575;49.908;18.356;2024-02-26T01:13:53;47.75;;;26.55;;
82022;SDS011;71575;49.908;18.356;2024-02-26T01:16:54;45.65;;;22.70;;
82022;SDS011;71575;49.908;18.356;2024-02-26T01:19:55;40.58;;;22.20;;
82022;SDS011;71575;49.908;18.356;2024-02-26T01:22:56;38.53;;;19.67;;
82022;SDS011;71575;49.908;18.356;2024-02-26T01:25:57;34.72;;;19.80;;
82022;SDS011;71575;49.908;18.356;2024-02-26T01:28:58;35.05;;;18.17;;
82022;SDS011;71575;49.908;18.356;2024-02-26T01:31:59;30.20;;;15.18;;
82022;SDS011;71575;49.908;18.356;2024-02-26T01:34:59;43.45;;;22.27;;
82022;SDS011;71575;49.908;18.356;2024-02-26T01:38:01;38.78;;;22.17;;
82022;SDS011;71575;49.908;18.356;2024-02-26T01:41:02;39.72;;;21.23;;
82022;SDS011;71575;49.908;18.356;2024-02-26T01:44:05;41.70;;;22.42;;
82022;SDS011;71575;49.908;18.356;2024-02-26T01:47:07;38.00;;;19.08;;
82022;SDS011;71575;49.908;18.356;2024-02-26T01:50:14;39.55;;;20.58;;
82022;SDS011;71575;49.908;18.356;2024-02-26T01:53:17;43.40;;;24.30;;
82022;SDS011;71575;49.908;18.356;2024-02-26T01:56:18;45.55;;;23.42;;
82022;SDS011;71575;49.908;18.356;2024-02-26T01:59:28;36.65;;;20.10;;
82022;SDS011;71575;49.908;18.356;2024-02-26T02:02:29;69.45;;;30.65;;
82022;SDS011;71575;49.908;18.356;2024-02-26T02:05:30;89.70;;;36.13;;
82022;SDS011;71575;49.908;18.356;2024-02-26T02:08:33;48.92;;;23.85;;
82022;SDS011;71575;49.908;18.356;2024-02-26T02:11:45;38.63;;;18.52;;
82022;SDS011;71575;49.908;18.356;2024-02-26T02:14:47;31.15;;;17.90;;
82022;SDS011;71575;49.908;18.356;2024-02-26T02:17:47;27.10;;;15.88;;
82022;SDS011;71575;49.908;18.356;2024-02-26T02:20:48;32.63;;;16.80;;
82022;SDS011;71575;49.908;18.356;2024-02-26T02:23:49;27.02;;;15.48;;
82022;SDS011;71575;49.908;18.356;2024-02-26T02:26:52;28.20;;;16.25;;
82022;SDS011;71575;49.908;18.356;2024-02-26T02:29:52;17.38;;;7.85;;
82022;SDS011;71575;49.908;18.356;2024-02-26T02:32:53;30.23;;;16.40;;
82022;SDS011;71575;49.908;18.356;2024-02-26T02:35:54;31.73;;;15.00;;
82022;SDS011;71575;49.908;18.356;2024-02-26T02:38:55;28.08;;;14.93;;
82022;SDS011;71575;49.908;18.356;2024-02-26T02:41:57;26.60;;;12.50;;
82022;SDS011;71575;49.908;18.356;2024-02-26T02:44:58;27.23;;;11.55;;
82022;SDS011;71575;49.908;18.356;2024-02-26T02:48:00;26.70;;;12.73;;
82022;SDS011;71575;49.908;18.356;2024-02-26T02:51:04;27.00;;;12.75;;
82022;SDS011;71575;49.908;18.356;2024-02-26T02:54:05;23.35;;;12.68;;
82022;SDS011;71575;49.908;18.356;2024-02-26T02:57:06;16.58;;;9.65;;
82022;SDS011;71575;49.908;18.356;2024-02-26T03:00:08;23.52;;;11.20;;
82022;SDS011;71575;49.908;18.356;2024-02-26T03:03:09;17.30;;;10.30;;
82022;SDS011;71575;49.908;18.356;2024-02-26T03:06:10;20.58;;;11.18;;
82022;SDS011;71575;49.908;18.356;2024-02-26T03:09:11;21.40;;;12.02;;
82022;SDS011;71575;49.908;18.356;2024-02-26T03:12:14;19.30;;;9.95;;
82022;SDS011;71575;49.908;18.356;2024-02-26T03:15:17;16.70;;;8.45;;
82022;SDS011;71575;49.908;18.356;2024-02-26T03:18:18;17.98;;;8.98;;
82022;SDS011;71575;49.908;18.356;2024-02-26T03:21:19;18.30;;;9.48;;
82022;SDS011;71575;49.908;18.356;2024-02-26T03:24:20;20.40;;;10.98;;
82022;SDS011;71575;49.908;18.356;2024-02-26T03:27:21;19.05;;;10.63;;
82022;SDS011;71575;49.908;18.356;2024-02-26T03:30:22;19.80;;;8.18;;
82022;SDS011;71575;49.908;18.356;2024-02-26T03:33:23;15.38;;;8.52;;
82022;SDS011;71575;49.908;18.356;2024-02-26T03:36:24;18.33;;;9.57;;
82022;SDS011;71575;49.908;18.356;2024-02-26T03:39:25;17.20;;;8.90;;
82022;SDS011;71575;49.908;18.356;2024-02-26T03:42:25;19.58;;;11.00;;
82022;SDS011;71575;49.908;18.356;2024-02-26T03:45:27;16.00;;;9.32;;
82022;SDS011;71575;49.908;18.356;2024-02-26T03:48:27;17.63;;;7.28;;
82022;SDS011;71575;49.908;18.356;2024-02-26T03:51:28;17.73;;;10.00;;
82022;SDS011;71575;49.908;18.356;2024-02-26T03:54:29;18.00;;;8.85;;
82022;SDS011;71575;49.908;18.356;2024-02-26T03:57:30;16.70;;;8.98;;
82022;SDS011;71575;49.908;18.356;2024-02-26T04:00:30;16.95;;;8.15;;
82022;SDS011;71575;49.908;18.356;2024-02-26T04:03:31;20.88;;;9.63;;
82022;SDS011;71575;49.908;18.356;2024-02-26T04:06:32;16.63;;;8.57;;
82022;SDS011;71575;49.908;18.356;2024-02-26T04:09:33;14.13;;;6.75;;
82022;SDS011;71575;49.908;18.356;2024-02-26T04:12:33;22.73;;;9.48;;
82022;SDS011;71575;49.908;18.356;2024-02-26T04:15:34;17.27;;;9.25;;
82022;SDS011;71575;49.908;18.356;2024-02-26T04:18:35;15.57;;;7.55;;
82022;SDS011;71575;49.908;18.356;2024-02-26T04:21:35;17.60;;;6.95;;
82022;SDS011;71575;49.908;18.356;2024-02-26T04:24:36;23.42;;;11.13;;
82022;SDS011;71575;49.908;18.356;2024-02-26T04:27:39;18.75;;;10.75;;
82022;SDS011;71575;49.908;18.356;2024-02-26T04:30:41;22.02;;;11.27;;
82022;SDS011;71575;49.908;18.356;2024-02-26T04:33:47;20.98;;;10.82;;
82022;SDS011;71575;49.908;18.356;2024-02-26T04:36:47;20.77;;;10.50;;
82022;SDS011;71575;49.908;18.356;2024-02-26T04:39:49;18.73;;;9.30;;
82022;SDS011;71575;49.908;18.356;2024-02-26T04:42:50;19.83;;;10.02;;
82022;SDS011;71575;49.908;18.356;2024-02-26T04:45:51;27.48;;;13.00;;
82022;SDS011;71575;49.908;18.356;2024-02-26T04:48:52;19.27;;;9.88;;
82022;SDS011;71575;49.908;18.356;2024-02-26T04:51:53;19.02;;;9.95;;
82022;SDS011;71575;49.908;18.356;2024-02-26T04:54:53;22.40;;;13.63;;
82022;SDS011;71575;49.908;18.356;2024-02-26T04:57:54;17.67;;;8.68;;
82022;SDS011;71575;49.908;18.356;2024-02-26T05:00:55;17.70;;;9.05;;
82022;SDS011;71575;49.908;18.356;2024-02-26T05:03:55;21.83;;;9.90;;
82022;SDS011;71575;49.908;18.356;2024-02-26T05:06:56;23.98;;;12.20;;
82022;SDS011;71575;49.908;18.356;2024-02-26T05:09:57;23.42;;;11.90;;
82022;SDS011;71575;49.908;18.356;2024-02-26T05:12:57;14.15;;;7.85;;
82022;SDS011;71575;49.908;18.356;2024-02-26T05:16:00;21.40;;;9.35;;
82022;SDS011;71575;49.908;18.356;2024-02-26T05:19:00;21.08;;;10.52;;
82022;SDS011;71575;49.908;18.356;2024-02-26T05:22:07;24.63;;;11.38;;
82022;SDS011;71575;49.908;18.356;2024-02-26T05:25:08;21.60;;;11.45;;
82022;SDS011;71575;49.908;18.356;2024-02-26T05:28:11;22.42;;;13.60;;
82022;SDS011;71575;49.908;18.356;2024-02-26T05:31:14;20.05;;;11.00;;
82022;SDS011;71575;49.908;18.356;2024-02-26T05:34:20;23.60;;;10.02;;
82022;SDS011;71575;49.908;18.356;2024-02-26T05:37:22;26.42;;;13.35;;
82022;SDS011;71575;49.908;18.356;2024-02-26T05:40:23;21.17;;;10.65;;
82022;SDS011;71575;49.908;18.356;2024-02-26T05:43:27;22.20;;;12.95;;
82022;SDS011;71575;49.908;18.356;2024-02-26T05:46:34;19.52;;;9.80;;
82022;SDS011;71575;49.908;18.356;2024-02-26T05:49:34;15.68;;;7.82;;
82022;SDS011;71575;49.908;18.356;2024-02-26T05:52:36;16.98;;;7.30;;
82022;SDS011;71575;49.908;18.356;2024-02-26T05:55:38;18.52;;;8.68;;
82022;SDS011;71575;49.908;18.356;2024-02-26T05:58:43;15.57;;;6.47;;
82022;SDS011;71575;49.908;18.356;2024-02-26T06:01:44;15.40;;;7.13;;
82022;SDS011;71575;49.908;18.356;2024-02-26T06:04:45;14.43;;;8.10;;
82022;SDS011;71575;49.908;18.356;2024-02-26T06:07:45;17.92;;;10.43;;
82022;SDS011;71575;49.908;18.356;2024-02-26T06:10:46;16.85;;;8.77;;
82022;SDS011;71575;49.908;18.356;2024-02-26T06:13:46;16.25;;;8.55;;
82022;SDS011;71575;49.908;18.356;2024-02-26T06:16:50;17.85;;;8.95;;
82022;SDS011;71575;49.908;18.356;2024-02-26T06:19:52;20.42;;;8.63;;
82022;SDS011;71575;49.908;18.356;2024-02-26T06:22:52;25.55;;;8.45;;
82022;SDS011;71575;49.908;18.356;2024-02-26T06:25:53;24.73;;;9.88;;
82022;SDS011;71575;49.908;18.356;2024-02-26T06:28:55;22.88;;;10.27;;
82022;SDS011;71575;49.908;18.356;2024-02-26T06:31:56;18.55;;;8.90;;
82022;SDS011;71575;49.908;18.356;2024-02-26T06:35:01;27.30;;;10.73;;
82022;SDS011;71575;49.908;18.356;2024-02-26T06:38:01;18.65;;;9.93;;
82022;SDS011;71575;49.908;18.356;2024-02-26T06:41:06;21.75;;;11.60;;
82022;SDS011;71575;49.908;18.356;2024-02-26T06:44:07;24.17;;;9.77;;
82022;SDS011;71575;49.908;18.356;2024-02-26T06:47:09;18.77;;;8.52;;
82022;SDS011;71575;49.908;18.356;2024-02-26T06:50:11;23.98;;;10.57;;
82022;SDS011;71575;49.908;18.356;2024-02-26T06:53:12;28.08;;;10.18;;
82022;SDS011;71575;49.908;18.356;2024-02-26T06:56:14;22.70;;;10.18;;
82022;SDS011;71575;49.908;18.356;2024-02-26T06:59:15;24.38;;;10.77;;
82022;SDS011;71575;49.908;18.356;2024-02-26T07:02:16;18.27;;;7.95;;
82022;SDS011;71575;49.908;18.356;2024-02-26T07:05:17;21.52;;;11.48;;
82022;SDS011;71575;49.908;18.356;2024-02-26T07:08:17;23.65;;;11.50;;
82022;SDS011;71575;49.908;18.356;2024-02-26T07:11:18;27.48;;;10.25;;
82022;SDS011;71575;49.908;18.356;2024-02-26T07:14:22;23.55;;;10.95;;
82022;SDS011;71575;49.908;18.356;2024-02-26T07:17:24;21.38;;;11.02;;
82022;SDS011;71575;49.908;18.356;2024-02-26T07:20:24;19.63;;;10.68;;
82022;SDS011;71575;49.908;18.356;2024-02-26T07:23:25;23.15;;;10.65;;
82022;SDS011;71575;49.908;18.356;2024-02-26T07:26:26;22.98;;;11.95;;
82022;SDS011;71575;49.908;18.356;2024-02-26T07:29:29;22.13;;;11.18;;
82022;SDS011;71575;49.908;18.356;2024-02-26T07:32:29;24.67;;;12.32;;
82022;SDS011;71575;49.908;18.356;2024-02-26T07:35:33;23.38;;;10.65;;
82022;SDS011;71575;49.908;18.356;2024-02-26T07:38:33;27.65;;;13.75;;
82022;SDS011;71575;49.908;18.356;2024-02-26T07:41:35;22.92;;;12.18;;
82022;SDS011;71575;49.908;18.356;2024-02-26T07:44:35;23.38;;;12.95;;
82022;SDS011;71575;49.908;18.356;2024-02-26T07:47:37;32.10;;;12.75;;
82022;SDS011;71575;49.908;18.356;2024-02-26T07:50:37;23.88;;;11.88;;
82022;SDS011;71575;49.908;18.356;2024-02-26T07:53:41;27.58;;;12.88;;
82022;SDS011;71575;49.908;18.356;2024-02-26T07:56:41;26.88;;;13.60;;
82022;SDS011;71575;49.908;18.356;2024-02-26T07:59:42;31.65;;;14.05;;
82022;SDS011;71575;49.908;18.356;2024-02-26T08:02:43;34.72;;;12.40;;
82022;SDS011;71575;49.908;18.356;2024-02-26T08:05:44;35.67;;;13.80;;
82022;SDS011;71575;49.908;18.356;2024-02-26T08:08:45;27.27;;;15.07;;
82022;SDS011;71575;49.908;18.356;2024-02-26T08:11:45;27.42;;;13.85;;
82022;SDS011;71575;49.908;18.356;2024-02-26T08:14:46;24.27;;;13.43;;
82022;SDS011;71575;49.908;18.356;2024-02-26T08:17:53;27.65;;;13.93;;
82022;SDS011;71575;49.908;18.356;2024-02-26T08:20:54;33.50;;;14.90;;
82022;SDS011;71575;49.908;18.356;2024-02-26T08:23:55;26.92;;;14.00;;
82022;SDS011;71575;49.908;18.356;2024-02-26T08:26:56;24.75;;;12.82;;
82022;SDS011;71575;49.908;18.356;2024-02-26T08:29:56;27.48;;;12.70;;
82022;SDS011;71575;49.908;18.356;2024-02-26T08:32:58;25.65;;;14.77;;
82022;SDS011;71575;49.908;18.356;2024-02-26T08:36:02;25.60;;;15.02;;
82022;SDS011;71575;49.908;18.356;2024-02-26T08:39:04;22.95;;;11.80;;
82022;SDS011;71575;49.908;18.356;2024-02-26T08:42:06;28.90;;;16.83;;
82022;SDS011;71575;49.908;18.356;2024-02-26T08:45:10;25.30;;;12.48;;
82022;SDS011;71575;49.908;18.356;2024-02-26T08:48:14;20.23;;;12.20;;
82022;SDS011;71575;49.908;18.356;2024-02-26T08:51:15;22.20;;;10.52;;
82022;SDS011;71575;49.908;18.356;2024-02-26T08:54:18;23.77;;;11.85;;
82022;SDS011;71575;49.908;18.356;2024-02-26T08:57:19;19.52;;;8.88;;
82022;SDS011;71575;49.908;18.356;2024-02-26T09:00:20;20.52;;;12.10;;
82022;SDS011;71575;49.908;18.356;2024-02-26T09:03:20;18.02;;;9.45;;
82022;SDS011;71575;49.908;18.356;2024-02-26T09:06:24;18.70;;;9.93;;
82022;SDS011;71575;49.908;18.356;2024-02-26T09:09:24;17.13;;;9.27;;
82022;SDS011;71575;49.908;18.356;2024-02-26T09:12:28;18.42;;;9.20;;
82022;SDS011;71575;49.908;18.356;2024-02-26T09:15:30;16.85;;;9.60;;
82022;SDS011;71575;49.908;18.356;2024-02-26T09:18:32;17.13;;;7.53;;
82022;SDS011;71575;49.908;18.356;2024-02-26T09:21:36;15.15;;;7.95;;
82022;SDS011;71575;49.908;18.356;2024-02-26T09:24:39;15.40;;;9.95;;
82022;SDS011;71575;49.908;18.356;2024-02-26T09:27:40;17.02;;;9.40;;
82022;SDS011;71575;49.908;18.356;2024-02-26T09:30:42;14.98;;;8.18;;
82022;SDS011;71575;49.908;18.356;2024-02-26T09:33:43;18.33;;;8.02;;
82022;SDS011;71575;49.908;18.356;2024-02-26T09:36:44;14.88;;;7.30;;
82022;SDS011;71575;49.908;18.356;2024-02-26T09:39:45;11.93;;;5.03;;
82022;SDS011;71575;49.908;18.356;2024-02-26T09:42:47;11.27;;;5.18;;
82022;SDS011;71575;49.908;18.356;2024-02-26T09:45:49;10.88;;;4.50;;
82022;SDS011;71575;49.908;18.356;2024-02-26T09:48:56;12.25;;;4.65;;
82022;SDS011;71575;49.908;18.356;2024-02-26T09:52:03;9.82;;;5.53;;
82022;SDS011;71575;49.908;18.356;2024-02-26T09:55:05;12.18;;;5.05;;
82022;SDS011;71575;49.908;18.356;2024-02-26T09:58:06;10.70;;;5.05;;
82022;SDS011;71575;49.908;18.356;2024-02-26T10:01:13;12.77;;;4.15;;
82022;SDS011;71575;49.908;18.356;2024-02-26T10:04:17;10.73;;;4.38;;
82022;SDS011;71575;49.908;18.356;2024-02-26T10:07:18;10.82;;;4.78;;
82022;SDS011;71575;49.908;18.356;2024-02-26T10:10:18;11.73;;;4.55;;
82022;SDS011;71575;49.908;18.356;2024-02-26T10:13:21;11.20;;;5.00;;
82022;SDS011;71575;49.908;18.356;2024-02-26T10:16:22;8.80;;;3.50;;
82022;SDS011;71575;49.908;18.356;2024-02-26T10:19:26;11.68;;;5.32;;
82022;SDS011;71575;49.908;18.356;2024-02-26T10:22:27;10.00;;;3.80;;
82022;SDS011;71575;49.908;18.356;2024-02-26T10:25:31;10.70;;;4.63;;
82022;SDS011;71575;49.908;18.356;2024-02-26T10:28:32;10.43;;;3.63;;
82022;SDS011;71575;49.908;18.356;2024-02-26T10:31:35;10.45;;;4.78;;
82022;SDS011;71575;49.908;18.356;2024-02-26T10:34:36;14.43;;;5.53;;
82022;SDS011;71575;49.908;18.356;2024-02-26T10:37:37;11.82;;;4.82;;
82022;SDS011;71575;49.908;18.356;2024-02-26T10:40:37;11.82;;;6.45;;
82022;SDS011;71575;49.908;18.356;2024-02-26T10:43:42;14.82;;;6.32;;
82022;SDS011;71575;49.908;18.356;2024-02-26T10:46:43;11.68;;;6.30;;
82022;SDS011;71575;49.908;18.356;2024-02-26T10:49:47;11.93;;;5.22;;
82022;SDS011;71575;49.908;18.356;2024-02-26T10:52:47;10.95;;;5.70;;
82022;SDS011;71575;49.908;18.356;2024-02-26T10:55:49;10.40;;;5.22;;
82022;SDS011;71575;49.908;18.356;2024-02-26T10:59:00;11.52;;;4.90;;
82022;SDS011;71575;49.908;18.356;2024-02-26T11:02:04;11.00;;;5.38;;
82022;SDS011;71575;49.908;18.356;2024-02-26T11:05:05;10.55;;;4.53;;
82022;SDS011;71575;49.908;18.356;2024-02-26T11:08:14;11.02;;;4.97;;
82022;SDS011;71575;49.908;18.356;2024-02-26T11:11:20;10.23;;;5.07;;
82022;SDS011;71575;49.908;18.356;2024-02-26T11:14:21;9.40;;;5.25;;
82022;SDS011;71575;49.908;18.356;2024-02-26T11:17:25;9.65;;;4.22;;
82022;SDS011;71575;49.908;18.356;2024-02-26T11:20:29;9.20;;;4.20;;
82022;SDS011;71575;49.908;18.356;2024-02-26T11:23:35;11.13;;;4.35;;
82022;SDS011;71575;49.908;18.356;2024-02-26T11:26:38;10.32;;;4.57;;
82022;SDS011;71575;49.908;18.356;2024-02-26T11:29:47;10.20;;;6.25;;
82022;SDS011;71575;49.908;18.356;2024-02-26T11:32:53;10.00;;;3.28;;
82022;SDS011;71575;49.908;18.356;2024-02-26T11:35:55;3.42;;;0.82;;
82022;SDS011;71575;49.908;18.356;2024-02-26T11:38:56;3.92;;;1.52;;
82022;SDS011;71575;49.908;18.356;2024-02-26T11:42:04;6.82;;;1.15;;
82022;SDS011;71575;49.908;18.356;2024-02-26T11:45:11;4.22;;;0.90;;
82022;SDS011;71575;49.908;18.356;2024-02-26T11:48:42;3.95;;;1.30;;
82022;SDS011;71575;49.908;18.356;2024-02-26T11:51:44;2.60;;;0.20;;
82022;SDS011;71575;49.908;18.356;2024-02-26T11:54:52;14.82;;;2.08;;
82022;SDS011;71575;49.908;18.356;2024-02-26T11:57:54;4.80;;;1.52;;
82022;SDS011;71575;49.908;18.356;2024-02-26T12:00:57;4.72;;;1.90;;
82022;SDS011;71575;49.908;18.356;2024-02-26T12:03:58;3.60;;;0.38;;
82022;SDS011;71575;49.908;18.356;2024-02-26T12:07:06;3.95;;;1.73;;
82022;SDS011;71575;49.908;18.356;2024-02-26T12:10:14;4.00;;;1.88;;
82022;SDS011;71575;49.908;18.356;2024-02-26T12:13:17;4.18;;;1.30;;
82022;SDS011;71575;49.908;18.356;2024-02-26T12:19:39;5.75;;;1.45;;
82022;SDS011;71575;49.908;18.356;2024-02-26T12:22:44;5.30;;;1.88;;
82022;SDS011;71575;49.908;18.356;2024-02-26T12:25:48;5.85;;;2.05;;
82022;SDS011;71575;49.908;18.356;2024-02-26T12:28:53;4.15;;;1.42;;
82022;SDS011;71575;49.908;18.356;2024-02-26T12:31:54;4.55;;;1.90;;
82022;SDS011;71575;49.908;18.356;2024-02-26T12:34:58;5.55;;;2.95;;
82022;SDS011;71575;49.908;18.356;2024-02-26T12:38:01;4.30;;;1.52;;
82022;SDS011;71575;49.908;18.356;2024-02-26T12:41:01;4.93;;;1.77;;
82022;SDS011;71575;49.908;18.356;2024-02-26T12:44:02;4.70;;;2.03;;
82022;SDS011;71575;49.908;18.356;2024-02-26T12:47:03;4.78;;;2.65;;
82022;SDS011;71575;49.908;18.356;2024-02-26T12:50:05;5.38;;;1.77;;
82022;SDS011;71575;49.908;18.356;2024-02-26T12:53:06;4.85;;;1.88;;
82022;SDS011;71575;49.908;18.356;2024-02-26T12:56:09;5.68;;;1.50;;
82022;SDS011;71575;49.908;18.356;2024-02-26T12:59:10;7.78;;;1.73;;
82022;SDS011;71575;49.908;18.356;2024-02-26T13:02:15;4.40;;;2.00;;
82022;SDS011;71575;49.908;18.356;2024-02-26T13:05:17;6.03;;;1.80;;
82022;SDS011;71575;49.908;18.356;2024-02-26T13:08:19;5.20;;;1.65;;
82022;SDS011;71575;49.908;18.356;2024-02-26T13:11:20;4.35;;;1.55;;
82022;SDS011;71575;49.908;18.356;2024-02-26T13:14:21;4.82;;;1.60;;
82022;SDS011;71575;49.908;18.356;2024-02-26T13:17:22;5.28;;;1.85;;
82022;SDS011;71575;49.908;18.356;2024-02-26T13:20:28;6.47;;;1.48;;
82022;SDS011;71575;49.908;18.356;2024-02-26T13:23:29;3.70;;;0.60;;
82022;SDS011;71575;49.908;18.356;2024-02-26T13:26:31;5.38;;;2.17;;
82022;SDS011;71575;49.908;18.356;2024-02-26T13:29:32;4.63;;;1.83;;
82022;SDS011;71575;49.908;18.356;2024-02-26T13:32:36;4.32;;;1.77;;
82022;SDS011;71575;49.908;18.356;2024-02-26T13:35:38;4.53;;;1.80;;
82022;SDS011;71575;49.908;18.356;2024-02-26T13:38:39;7.53;;;2.92;;
82022;SDS011;71575;49.908;18.356;2024-02-26T13:41:40;8.65;;;2.45;;
82022;SDS011;71575;49.908;18.356;2024-02-26T13:44:41;6.03;;;3.20;;
82022;SDS011;71575;49.908;18.356;2024-02-26T13:47:43;5.22;;;2.10;;
82022;SDS011;71575;49.908;18.356;2024-02-26T13:50:44;5.03;;;2.75;;
82022;SDS011;71575;49.908;18.356;2024-02-26T13:53:45;6.80;;;2.00;;
82022;SDS011;71575;49.908;18.356;2024-02-26T13:56:46;6.35;;;2.47;;
82022;SDS011;71575;49.908;18.356;2024-02-26T13:59:47;5.63;;;2.50;;
82022;SDS011;71575;49.908;18.356;2024-02-26T14:02:48;6.97;;;5.05;;
82022;SDS011;71575;49.908;18.356;2024-02-26T14:05:49;7.22;;;3.42;;
82022;SDS011;71575;49.908;18.356;2024-02-26T14:08:54;6.03;;;3.35;;
82022;SDS011;71575;49.908;18.356;2024-02-26T14:11:55;4.63;;;3.13;;
82022;SDS011;71575;49.908;18.356;2024-02-26T14:14:56;7.40;;;5.13;;
82022;SDS011;71575;49.908;18.356;2024-02-26T14:17:57;7.57;;;3.28;;
82022;SDS011;71575;49.908;18.356;2024-02-26T14:21:01;7.80;;;5.43;;
82022;SDS011;71575;49.908;18.356;2024-02-26T14:24:03;5.85;;;2.42;;
82022;SDS011;71575;49.908;18.356;2024-02-26T14:27:05;6.65;;;2.47;;
82022;SDS011;71575;49.908;18.356;2024-02-26T14:30:06;6.20;;;1.70;;
82022;SDS011;71575;49.908;18.356;2024-02-26T14:33:07;5.10;;;1.08;;
82022;SDS011;71575;49.908;18.356;2024-02-26T14:36:09;6.60;;;3.53;;
82022;SDS011;71575;49.908;18.356;2024-02-26T14:39:10;6.70;;;2.88;;
82022;SDS011;71575;49.908;18.356;2024-02-26T14:42:11;5.35;;;2.88;;
82022;SDS011;71575;49.908;18.356;2024-02-26T14:45:12;6.43;;;4.18;;
82022;SDS011;71575;49.908;18.356;2024-02-26T14:48:13;8.68;;;2.53;;
82022;SDS011;71575;49.908;18.356;2024-02-26T14:51:13;6.35;;;3.55;;
82022;SDS011;71575;49.908;18.356;2024-02-26T14:54:14;7.15;;;3.50;;
82022;SDS011;71575;49.908;18.356;2024-02-26T14:57:15;7.38;;;4.55;;
82022;SDS011;71575;49.908;18.356;2024-02-26T15:00:16;6.88;;;3.17;;
82022;SDS011;71575;49.908;18.356;2024-02-26T15:03:18;6.20;;;3.25;;
82022;SDS011;71575;49.908;18.356;2024-02-26T15:06:21;6.15;;;3.55;;
82022;SDS011;71575;49.908;18.356;2024-02-26T15:09:30;7.47;;;3.30;;
82022;SDS011;71575;49.908;18.356;2024-02-26T15:12:31;6.75;;;4.15;;
82022;SDS011;71575;49.908;18.356;2024-02-26T15:15:33;6.53;;;3.30;;
82022;SDS011;71575;49.908;18.356;2024-02-26T15:18:34;6.97;;;4.25;;
82022;SDS011;71575;49.908;18.356;2024-02-26T15:21:41;7.35;;;3.92;;
82022;SDS011;71575;49.908;18.356;2024-02-26T15:24:43;7.80;;;4.68;;
82022;SDS011;71575;49.908;18.356;2024-02-26T15:27:44;9.93;;;4.50;;
82022;SDS011;71575;49.908;18.356;2024-02-26T15:30:45;10.93;;;4.72;;
82022;SDS011;71575;49.908;18.356;2024-02-26T15:33:45;8.20;;;3.88;;
82022;SDS011;71575;49.908;18.356;2024-02-26T15:36:48;10.18;;;5.03;;
82022;SDS011;71575;49.908;18.356;2024-02-26T15:39:49;9.88;;;4.25;;
82022;SDS011;71575;49.908;18.356;2024-02-26T15:42:49;9.18;;;5.03;;
82022;SDS011;71575;49.908;18.356;2024-02-26T15:45:51;8.93;;;4.22;;
82022;SDS011;71575;49.908;18.356;2024-02-26T15:48:52;8.27;;;4.82;;
82022;SDS011;71575;49.908;18.356;2024-02-26T15:51:55;8.63;;;3.40;;
82022;SDS011;71575;49.908;18.356;2024-02-26T15:54:57;9.20;;;3.80;;
82022;SDS011;71575;49.908;18.356;2024-02-26T15:57:58;8.77;;;5.00;;
82022;SDS011;71575;49.908;18.356;2024-02-26T16:01:00;8.10;;;4.53;;
82022;SDS011;71575;49.908;18.356;2024-02-26T16:04:01;12.05;;;5.28;;
82022;SDS011;71575;49.908;18.356;2024-02-26T16:07:02;9.13;;;3.80;;
82022;SDS011;71575;49.908;18.356;2024-02-26T16:10:04;11.32;;;6.00;;
82022;SDS011;71575;49.908;18.356;2024-02-26T16:13:05;13.13;;;5.63;;
82022;SDS011;71575;49.908;18.356;2024-02-26T16:16:12;11.35;;;5.63;;
82022;SDS011;71575;49.908;18.356;2024-02-26T16:19:14;11.10;;;4.40;;
82022;SDS011;71575;49.908;18.356;2024-02-26T16:22:16;11.18;;;5.63;;
82022;SDS011;71575;49.908;18.356;2024-02-26T16:25:17;9.57;;;4.78;;
82022;SDS011;71575;49.908;18.356;2024-02-26T16:28:18;8.75;;;4.35;;
82022;SDS011;71575;49.908;18.356;2024-02-26T16:31:19;11.05;;;5.00;;
82022;SDS011;71575;49.908;18.356;2024-02-26T16:34:19;10.77;;;4.00;;
82022;SDS011;71575;49.908;18.356;2024-02-26T16:37:22;11.35;;;5.68;;
82022;SDS011;71575;49.908;18.356;2024-02-26T16:40:22;10.05;;;5.85;;
82022;SDS011;71575;49.908;18.356;2024-02-26T16:43:23;9.98;;;4.95;;
82022;SDS011;71575;49.908;18.356;2024-02-26T16:46:24;11.98;;;6.78;;
82022;SDS011;71575;49.908;18.356;2024-02-26T16:49:25;12.80;;;6.60;;
82022;SDS011;71575;49.908;18.356;2024-02-26T16:52:25;16.25;;;4.95;;
82022;SDS011;71575;49.908;18.356;2024-02-26T16:55:26;11.13;;;5.30;;
82022;SDS011;71575;49.908;18.356;2024-02-26T16:58:27;11.48;;;5.80;;
82022;SDS011;71575;49.908;18.356;2024-02-26T17:01:28;13.50;;;6.97;;
82022;SDS011;71575;49.908;18.356;2024-02-26T17:04:33;12.40;;;6.60;;
82022;SDS011;71575;49.908;18.356;2024-02-26T17:07:34;11.13;;;6.07;;
82022;SDS011;71575;49.908;18.356;2024-02-26T17:10:34;10.88;;;5.60;;
82022;SDS011;71575;49.908;18.356;2024-02-26T17:13:35;11.45;;;6.43;;
82022;SDS011;71575;49.908;18.356;2024-02-26T17:16:41;10.13;;;4.85;;
82022;SDS011;71575;49.908;18.356;2024-02-26T17:19:43;10.10;;;5.57;;
82022;SDS011;71575;49.908;18.356;2024-02-26T17:22:46;12.18;;;4.43;;
82022;SDS011;71575;49.908;18.356;2024-02-26T17:25:47;12.93;;;5.60;;
82022;SDS011;71575;49.908;18.356;2024-02-26T17:28:49;13.85;;;5.88;;
82022;SDS011;71575;49.908;18.356;2024-02-26T17:31:50;12.38;;;5.95;;
82022;SDS011;71575;49.908;18.356;2024-02-26T17:34:56;13.93;;;6.78;;
82022;SDS011;71575;49.908;18.356;2024-02-26T17:37:56;13.40;;;6.53;;
82022;SDS011;71575;49.908;18.356;2024-02-26T17:40:57;13.65;;;7.32;;
82022;SDS011;71575;49.908;18.356;2024-02-26T17:43:59;15.38;;;7.95;;
82022;SDS011;71575;49.908;18.356;2024-02-26T17:47:01;17.15;;;9.63;;